Time;durP1;ratioP1;P1;durP2;ratioP2;P2;SDS_P1;SDS_P2;PMS_P1;PMS_P2;Temp;Humidity;BMP_temperature;BMP_pressure;BME280_temperature;BME280_humidity;BME280_pressure;Samples;Min_cycle;Max_cycle;Signal;HPM_P1;HPM_P2
2021/01/11 15:10:14;;;;;;;41.53;23.73;;;-0.80;92.00;;;;;;5076274;27;20778;-96
2021/01/11 15:12:40;;;;;;;36.42;22.35;;;-0.90;92.30;;;;;;5070799;28;20031;-96
2021/01/11 15:15:06;;;;;;;40.08;22.08;;;-0.90;92.70;;;;;;5070619;28;20025;-96
2021/01/11 15:17:40;;;;;;;35.67;20.50;;;-0.80;93.10;;;;;;5072397;28;20031;-96
2021/01/11 15:20:09;;;;;;;38.13;21.35;;;-0.70;93.50;;;;;;5076662;28;20111;-96
2021/01/11 15:22:35;;;;;;;35.15;20.98;;;-0.60;93.70;;;;;;5071952;28;20028;-96
2021/01/11 15:25:02;;;;;;;34.65;21.00;;;-0.50;93.90;;;;;;5069884;28;20599;-96
2021/01/11 15:27:28;;;;;;;35.42;20.95;;;-0.40;94.00;;;;;;5069061;28;20036;-96
2021/01/11 15:29:56;;;;;;;33.92;20.30;;;-0.40;94.00;;;;;;5074376;28;20033;-96
2021/01/11 15:32:22;;;;;;;33.80;18.95;;;-0.30;94.10;;;;;;5068274;28;20036;-96
2021/01/11 15:34:48;;;;;;;32.67;18.65;;;-0.20;94.10;;;;;;5074616;28;20029;-95
2021/01/11 15:37:14;;;;;;;33.63;20.70;;;-0.20;94.10;;;;;;5072047;28;20040;-95
2021/01/11 15:39:46;;;;;;;35.20;21.77;;;-0.10;94.00;;;;;;5071366;28;20133;-95
2021/01/11 15:42:20;;;;;;;33.88;20.25;;;-0.10;93.90;;;;;;5069476;28;20059;-96
2021/01/11 15:44:56;;;;;;;;;;;;;;;;;;;;;
2021/01/11 15:47:22;;;;;;;36.75;21.73;;;0.00;93.90;;;;;;5069853;28;20019;-93
2021/01/11 15:49:47;;;;;;;44.00;24.73;;;0.10;93.90;;;;;;5068850;28;20111;-94
2021/01/11 15:52:13;;;;;;;41.72;24.35;;;0.10;93.60;;;;;;5067863;28;20029;-93
2021/01/11 15:54:39;;;;;;;38.50;23.02;;;0.10;93.50;;;;;;5067888;28;20028;-94
2021/01/11 15:57:05;;;;;;;39.80;22.63;;;0.10;93.40;;;;;;5068142;28;20496;-94
2021/01/11 15:59:31;;;;;;;35.95;21.17;;;0.20;93.30;;;;;;5069115;28;20029;-94
2021/01/11 16:01:57;;;;;;;38.58;21.70;;;0.20;93.40;;;;;;5074193;28;20021;-96
2021/01/11 16:04:23;;;;;;;35.65;19.95;;;0.20;93.40;;;;;;5077190;28;20028;-94
2021/01/11 16:06:52;;;;;;;40.47;23.02;;;0.20;93.50;;;;;;5069045;28;20169;-93
2021/01/11 16:09:18;;;;;;;41.42;23.60;;;0.20;93.40;;;;;;5065445;28;20052;-92
2021/01/11 16:11:45;;;;;;;42.42;24.27;;;0.20;93.40;;;;;;5077969;28;20473;-96
2021/01/11 16:14:17;;;;;;;48.28;28.48;;;0.20;93.40;;;;;;5083601;28;20107;-96
2021/01/11 16:16:48;;;;;;;61.65;32.80;;;0.20;93.20;;;;;;5084963;28;20025;-96
2021/01/11 16:19:31;;;;;;;69.40;38.05;;;0.30;93.20;;;;;;5088601;28;20056;-96
2021/01/11 16:21:57;;;;;;;67.45;39.75;;;0.30;93.00;;;;;;5248983;23;20042;-95
2021/01/11 16:27:06;;;;;;;142.35;71.78;;;0.30;92.90;;;;;;5414402;22;20061;-95
2021/01/11 16:29:34;;;;;;;124.22;61.80;;;0.30;93.30;;;;;;5032461;28;20026;-95
2021/01/11 16:32:03;;;;;;;92.50;47.58;;;0.30;93.20;;;;;;5021945;28;20029;-95
2021/01/11 16:35:48;;;;;;;76.85;38.95;;;0.30;92.80;;;;;;4995320;27;1268201;-95
2021/01/11 16:38:14;;;;;;;67.38;35.83;;;0.30;93.20;;;;;;5046995;28;20497;-96
2021/01/11 16:41:22;;;;;;;47.42;26.90;;;0.40;93.10;;;;;;5047445;28;20006;-96
2021/01/11 16:44:28;;;;;;;42.65;23.90;;;0.40;92.90;;;;;;5045565;28;20033;-96
2021/01/11 16:47:01;;;;;;;39.10;21.83;;;0.30;92.90;;;;;;5043063;28;20048;-96
2021/01/11 16:49:28;;;;;;;43.63;24.15;;;0.30;92.90;;;;;;5241717;23;20092;-95
2021/01/11 16:52:00;;;;;;;46.65;26.20;;;0.30;92.90;;;;;;5014230;28;20081;-96
2021/01/11 16:54:30;;;;;;;45.75;25.67;;;0.30;92.10;;;;;;5198717;22;20043;-94
2021/01/11 17:11:42;;;;;;;40.95;22.20;;;0.40;92.60;;;;;;5651721;23;20055;-96
2021/01/11 17:14:10;;;;;;;36.30;21.10;;;0.40;92.90;;;;;;4867825;29;20132;-90
2021/01/11 17:16:35;;;;;;;49.95;26.45;;;0.30;92.70;;;;;;4884336;29;20033;-92
2021/01/11 17:19:01;;;;;;;44.85;26.45;;;0.40;92.80;;;;;;4889667;29;20094;-93
2021/01/11 17:21:28;;;;;;;48.10;25.23;;;0.40;92.80;;;;;;4888812;29;20029;-93
2021/01/11 17:23:57;;;;;;;55.72;30.08;;;0.40;92.90;;;;;;4889864;29;20040;-93
2021/01/11 17:26:33;;;;;;;63.03;33.17;;;0.40;92.90;;;;;;4890961;29;20029;-93
2021/01/11 17:29:00;;;;;;;59.15;32.92;;;0.40;92.70;;;;;;4887279;29;20042;-94
2021/01/11 17:31:26;;;;;;;63.83;35.30;;;0.40;92.80;;;;;;4892442;29;20029;-95
2021/01/11 17:33:52;;;;;;;57.03;32.10;;;0.30;93.00;;;;;;4892253;29;20439;-95
2021/01/11 17:36:22;;;;;;;56.72;31.88;;;0.40;92.80;;;;;;4894407;29;20064;-95
2021/01/11 17:38:52;;;;;;;63.42;32.08;;;0.40;92.90;;;;;;4896534;29;20025;-96
2021/01/11 17:41:22;;;;;;;63.20;31.27;;;0.40;92.80;;;;;;4884077;29;20017;-94
2021/01/11 17:43:49;;;;;;;60.03;33.85;;;0.40;92.70;;;;;;4889407;29;20066;-94
2021/01/11 17:46:17;;;;;;;68.50;35.97;;;0.40;92.60;;;;;;4886820;29;20067;-95
2021/01/11 17:48:46;;;;;;;68.10;35.85;;;0.30;92.40;;;;;;4885177;29;20029;-96
2021/01/11 17:51:12;;;;;;;64.95;33.85;;;0.30;92.40;;;;;;4880723;29;20040;-94
2021/01/11 17:53:38;;;;;;;61.35;31.40;;;0.30;92.40;;;;;;4878675;29;20056;-96
2021/01/11 17:56:05;;;;;;;52.47;30.10;;;0.30;92.30;;;;;;4883192;29;20021;-94
2021/01/11 17:58:31;;;;;;;42.45;24.83;;;0.30;92.30;;;;;;4881437;29;20032;-94
2021/01/11 18:00:57;;;;;;;42.25;24.67;;;0.30;92.40;;;;;;4883372;29;20116;-95
2021/01/11 18:03:23;;;;;;;39.75;23.90;;;0.30;92.50;;;;;;4884602;29;20025;-96
2021/01/11 18:05:55;;;;;;;35.47;20.52;;;0.30;92.60;;;;;;4886281;29;20036;-96
2021/01/11 18:08:24;;;;;;;34.10;20.65;;;0.30;92.50;;;;;;4888459;29;20021;-95
2021/01/11 18:10:51;;;;;;;31.58;18.65;;;0.30;92.40;;;;;;4884129;29;20033;-96
2021/01/11 18:13:17;;;;;;;28.88;18.10;;;0.30;92.20;;;;;;4887174;29;20065;-94
2021/01/11 18:15:45;;;;;;;32.72;18.35;;;0.30;92.30;;;;;;4881500;29;20041;-96
2021/01/11 18:18:11;;;;;;;32.33;17.52;;;0.30;92.40;;;;;;4883765;29;20048;-94
2021/01/11 18:20:41;;;;;;;27.00;16.95;;;0.30;92.50;;;;;;4884788;29;20064;-95
2021/01/11 18:23:07;;;;;;;28.08;17.60;;;0.30;92.60;;;;;;4883783;29;20161;-93
2021/01/11 18:25:33;;;;;;;25.85;16.27;;;0.30;92.70;;;;;;4875257;29;20120;-94
2021/01/11 18:27:59;;;;;;;35.42;20.73;;;0.30;92.80;;;;;;4879585;29;20067;-92
2021/01/11 18:30:26;;;;;;;40.13;24.23;;;0.30;92.80;;;;;;4880831;29;20025;-95
2021/01/11 18:32:53;;;;;;;36.38;22.25;;;0.30;92.80;;;;;;4879079;29;20037;-95
2021/01/11 18:35:19;;;;;;;33.55;19.27;;;0.30;92.80;;;;;;4880073;29;20055;-91
2021/01/11 18:37:45;;;;;;;30.88;18.33;;;0.30;92.80;;;;;;4879236;29;20471;-91
2021/01/11 18:40:11;;;;;;;30.65;17.92;;;0.30;92.80;;;;;;4878409;29;20154;-93
2021/01/11 18:42:37;;;;;;;32.05;19.73;;;0.30;92.70;;;;;;4873544;29;20037;-93
2021/01/11 18:45:06;;;;;;;31.50;18.80;;;0.30;92.60;;;;;;4877575;29;20483;-92
2021/01/11 18:47:35;;;;;;;31.08;18.75;;;0.30;92.60;;;;;;4886808;29;20082;-92
2021/01/11 18:50:05;;;;;;;30.35;18.85;;;0.30;92.60;;;;;;4877345;29;20088;-92
2021/01/11 18:52:31;;;;;;;31.10;19.98;;;0.30;92.70;;;;;;4878536;29;20040;-92
2021/01/11 18:54:57;;;;;;;35.88;21.27;;;0.30;92.70;;;;;;4878480;29;20448;-92
2021/01/11 18:57:23;;;;;;;37.10;20.83;;;0.30;93.00;;;;;;4865477;29;20021;-92
2021/01/11 18:59:49;;;;;;;39.38;24.17;;;0.30;92.80;;;;;;4879021;29;20027;-93
2021/01/11 19:02:14;;;;;;;38.25;23.23;;;0.30;92.80;;;;;;4874522;29;20116;-88
2021/01/11 19:04:40;;;;;;;41.08;22.27;;;0.30;92.80;;;;;;4879153;29;20077;-93
2021/01/11 19:07:06;;;;;;;35.92;23.15;;;0.30;92.70;;;;;;4879309;29;20432;-94
2021/01/11 19:09:34;;;;;;;37.78;23.23;;;0.30;92.60;;;;;;4877251;29;20036;-93
2021/01/11 19:12:01;;;;;;;40.22;24.00;;;0.30;92.60;;;;;;4875822;29;20542;-92
2021/01/11 19:14:27;;;;;;;42.60;23.63;;;0.30;92.40;;;;;;4876134;29;20057;-93
2021/01/11 19:17:01;;;;;;;36.70;21.90;;;0.30;92.50;;;;;;4878103;29;20486;-93
2021/01/11 19:19:31;;;;;;;42.35;25.15;;;0.30;92.50;;;;;;4884467;29;20029;-94
2021/01/11 19:22:05;;;;;;;43.95;25.45;;;0.20;92.50;;;;;;4884001;29;20024;-95
2021/01/11 19:24:30;;;;;;;36.97;21.65;;;0.30;92.60;;;;;;4879372;29;20037;-92
2021/01/11 19:27:00;;;;;;;44.72;25.08;;;0.20;92.60;;;;;;4881885;29;20501;-93
2021/01/11 19:29:35;;;;;;;38.88;22.98;;;0.30;92.60;;;;;;4878650;29;20378;-93
2021/01/11 19:32:07;;;;;;;40.55;24.02;;;0.20;92.50;;;;;;4879486;29;20052;-94
2021/01/11 19:34:33;;;;;;;45.22;26.52;;;0.20;92.50;;;;;;4881521;29;20029;-92
2021/01/11 19:37:02;;;;;;;48.75;27.42;;;0.20;92.40;;;;;;4872464;29;20056;-95
2021/01/11 19:39:27;;;;;;;57.95;29.80;;;0.30;92.50;;;;;;4877625;29;20021;-93
2021/01/11 19:41:53;;;;;;;55.78;31.00;;;0.20;92.50;;;;;;4875986;29;20039;-95
2021/01/11 19:44:19;;;;;;;59.65;33.13;;;0.20;92.50;;;;;;4872774;29;20029;-94
2021/01/11 19:48:21;;;;;;;64.10;36.33;;;0.20;92.30;;;;;;5104356;27;1040298;-95
2021/01/11 19:50:46;;;;;;;64.70;34.20;;;0.30;92.70;;;;;;5102037;28;20028;-96
2021/01/11 19:59:42;;;;;;;53.50;29.90;;;0.20;92.30;;;;;;5105078;28;20081;-96
2021/01/11 20:02:10;;;;;;;53.70;30.23;;;0.20;92.50;;;;;;5089381;28;20024;-95
2021/01/11 20:04:36;;;;;;;53.58;30.60;;;0.20;92.60;;;;;;5085324;28;20028;-94
2021/01/11 20:07:02;;;;;;;48.20;27.17;;;0.20;92.70;;;;;;5088593;28;20134;-94
2021/01/11 20:09:28;;;;;;;49.10;29.58;;;0.20;92.80;;;;;;5083181;28;20016;-95
2021/01/11 20:11:59;;;;;;;49.40;28.55;;;0.20;92.70;;;;;;5077745;28;20019;-96
2021/01/11 20:19:42;;;;;;;52.25;30.48;;;0.20;92.60;;;;;;5210607;22;20056;-95
2021/01/11 20:22:22;;;;;;;50.28;28.73;;;0.20;92.60;;;;;;5072223;28;20096;-95
2021/01/11 20:27:27;;;;;;;54.17;29.08;;;0.10;92.80;;;;;;5159051;22;20048;-95
2021/01/11 22:08:14;;;;;;;43.08;22.15;;;-1.20;91.70;;;;;;4937466;28;4092253;-96
